createdAt,value
2023-02-04T00:00:56.341Z,29.42
2023-02-04T00:05:58.551Z,25.17
2023-02-04T00:11:00.696Z,24.35
2023-02-04T00:16:02.802Z,37.97
2023-02-04T00:21:05.104Z,27.70
2023-02-04T00:26:07.186Z,25.33
2023-02-04T00:31:09.309Z,30.60
2023-02-04T00:36:11.286Z,31.38
2023-02-04T00:41:13.503Z,34.33
2023-02-04T00:46:15.597Z,24.95
2023-02-04T00:51:17.697Z,24.27
2023-02-04T00:56:19.702Z,28.58
2023-02-04T01:01:21.807Z,27.58
2023-02-04T01:06:24.025Z,22.92
2023-02-04T01:11:26.087Z,23.90
2023-02-04T01:16:28.164Z,26.75
2023-02-04T01:21:30.393Z,32.65
2023-02-04T01:26:32.445Z,21.95
2023-02-04T01:31:34.582Z,20.42
2023-02-04T01:36:37.976Z,31.48
2023-02-04T01:41:40.598Z,29.33
2023-02-04T01:46:42.766Z,33.10
2023-02-04T01:51:45.058Z,33.08
2023-02-04T01:56:49.026Z,30.15
2023-02-04T02:01:52.645Z,27.88
2023-02-04T02:06:58.700Z,35.40
2023-02-04T02:12:03.195Z,24.42
2023-02-04T02:17:05.229Z,28.50
2023-02-04T02:22:16.848Z,23.80
2023-02-04T02:27:19.357Z,30.20
2023-02-04T02:32:21.566Z,26.25
2023-02-04T02:37:24.260Z,27.60
2023-02-04T02:42:26.392Z,33.92
2023-02-04T02:47:29.518Z,27.30
2023-02-04T02:52:31.757Z,29.20
2023-02-04T02:57:33.830Z,26.77
2023-02-04T03:02:36.349Z,26.60
2023-02-04T03:07:38.558Z,26.02
2023-02-04T03:12:40.713Z,27.30
2023-02-04T03:17:43.945Z,38.38
2023-02-04T03:22:47.742Z,30.40
2023-02-04T03:27:51.605Z,31.10
2023-02-04T03:32:55.498Z,31.60
2023-02-04T03:37:57.513Z,31.83
2023-02-04T03:42:59.741Z,41.95
2023-02-04T03:48:01.873Z,40.88
2023-02-04T03:53:04.201Z,50.30
2023-02-04T03:58:06.205Z,44.60
2023-02-04T04:03:08.436Z,44.15
2023-02-04T04:08:10.520Z,43.13
2023-02-04T04:13:12.498Z,47.30
2023-02-04T04:18:14.518Z,38.05
2023-02-04T04:23:16.499Z,39.47
2023-02-04T04:28:18.655Z,46.97
2023-02-04T04:33:20.681Z,35.85
2023-02-04T04:38:22.819Z,38.38
2023-02-04T04:43:24.964Z,43.65
2023-02-04T04:48:27.021Z,40.28
2023-02-04T04:53:29.072Z,32.78
2023-02-04T04:58:31.239Z,42.35
2023-02-04T05:03:33.289Z,41.28
2023-02-04T05:08:35.870Z,44.20
2023-02-04T05:13:41.201Z,48.38
2023-02-04T05:18:44.020Z,40.03
2023-02-04T05:23:46.218Z,35.50
2023-02-04T05:28:48.418Z,33.20
2023-02-04T05:33:50.598Z,42.33
2023-02-04T05:38:52.818Z,34.08
2023-02-04T05:43:55.012Z,37.78
2023-02-04T05:48:57.062Z,36.67
2023-02-04T05:53:59.333Z,34.92
2023-02-04T05:59:01.517Z,40.28
2023-02-04T06:04:03.926Z,39.35
2023-02-04T06:09:06.073Z,33.50
2023-02-04T06:14:08.093Z,41.08
2023-02-04T06:19:10.198Z,38.55
2023-02-04T06:24:12.239Z,45.95
2023-02-04T06:29:14.289Z,41.67
2023-02-04T06:34:16.505Z,45.42
2023-02-04T06:39:18.628Z,51.05
2023-02-04T06:44:20.662Z,50.20
2023-02-04T06:49:25.070Z,51.20
2023-02-04T06:54:27.109Z,50.65
2023-02-04T06:59:32.409Z,55.70
2023-02-04T07:04:35.307Z,58.78
2023-02-04T07:09:37.754Z,51.45
2023-02-04T07:14:39.725Z,52.33
2023-02-04T07:19:41.954Z,50.70
2023-02-04T07:24:44.111Z,59.53
2023-02-04T07:29:46.133Z,57.38
2023-02-04T07:34:48.388Z,55.72
2023-02-04T07:39:50.500Z,55.95
2023-02-04T07:44:52.647Z,57.95
2023-02-04T07:49:56.995Z,63.85
2023-02-04T07:54:59.550Z,65.60
2023-02-04T08:00:01.827Z,69.72
2023-02-04T08:05:04.256Z,69.07
2023-02-04T08:10:08.154Z,61.90
2023-02-04T08:15:10.272Z,69.00
2023-02-04T08:20:12.820Z,52.33
2023-02-04T08:25:14.993Z,65.93
2023-02-04T08:30:17.564Z,60.33
2023-02-04T08:35:19.600Z,59.90
2023-02-04T08:40:21.663Z,58.50
2023-02-04T08:45:23.708Z,61.70
2023-02-04T08:50:26.716Z,62.33
2023-02-04T08:55:28.800Z,65.25
2023-02-04T09:00:31.333Z,67.70
2023-02-04T09:05:33.898Z,58.83
2023-02-04T09:10:35.935Z,72.90
2023-02-04T09:15:38.065Z,61.97
2023-02-04T09:20:40.357Z,76.65
2023-02-04T09:25:44.142Z,69.90
2023-02-04T09:30:47.148Z,61.00
2023-02-04T09:35:49.547Z,63.58
2023-02-04T09:40:55.243Z,68.80
2023-02-04T09:45:58.371Z,59.70
2023-02-04T09:51:06.548Z,48.53
2023-02-04T09:56:10.830Z,51.85
2023-02-04T10:01:16.953Z,43.85
2023-02-04T10:06:21.628Z,33.33
2023-02-04T10:11:27.102Z,40.17
2023-02-04T10:16:32.784Z,30.02
2023-02-04T10:21:39.775Z,31.40
2023-02-04T10:26:42.258Z,26.05
2023-02-04T10:31:47.854Z,26.42
2023-02-04T10:36:57.477Z,32.88
2023-02-04T10:42:00.711Z,23.98
2023-02-04T10:47:25.919Z,27.80
2023-02-04T10:52:35.690Z,35.42
2023-02-04T10:57:41.936Z,33.85
2023-02-04T11:02:56.546Z,31.02
2023-02-04T11:07:59.414Z,23.73
2023-02-04T11:13:06.759Z,25.92
2023-02-04T11:18:12.537Z,30.67
2023-02-04T11:23:26.801Z,27.38
2023-02-04T11:28:28.831Z,24.52
2023-02-04T11:33:41.391Z,23.80
2023-02-04T11:38:46.114Z,22.02
2023-02-04T11:43:51.953Z,19.75
2023-02-04T11:48:55.615Z,22.42
2023-02-04T11:53:57.767Z,24.10
2023-02-04T11:58:59.909Z,26.42
2023-02-04T12:04:04.799Z,27.95
2023-02-04T12:09:15.793Z,25.58
2023-02-04T12:14:18.460Z,18.88
2023-02-04T12:19:20.575Z,24.05
2023-02-04T12:24:22.642Z,22.23
2023-02-04T12:29:24.673Z,24.08
2023-02-04T12:34:26.714Z,28.05
2023-02-04T12:39:28.731Z,29.05
2023-02-04T12:44:31.338Z,19.92
2023-02-04T12:49:33.326Z,28.20
2023-02-04T12:54:35.865Z,21.42
2023-02-04T12:59:38.050Z,21.85
2023-02-04T13:04:41.374Z,27.92
2023-02-04T13:09:45.096Z,28.08
2023-02-04T13:14:47.389Z,25.48
2023-02-04T13:19:49.591Z,19.17
2023-02-04T13:24:51.921Z,27.08
2023-02-04T13:29:54.164Z,23.15
2023-02-04T13:34:56.350Z,18.27
2023-02-04T13:39:58.474Z,29.08
2023-02-04T13:45:00.910Z,22.25
2023-02-04T13:50:03.063Z,24.10
2023-02-04T13:55:05.507Z,23.20
2023-02-04T14:00:09.214Z,25.35
2023-02-04T14:05:17.521Z,20.45
2023-02-04T14:10:21.995Z,25.10
2023-02-04T14:15:24.633Z,19.33
2023-02-04T14:20:27.070Z,22.88
2023-02-04T14:25:29.060Z,21.20
2023-02-04T14:30:32.213Z,27.27
2023-02-04T14:35:35.128Z,25.30
2023-02-04T14:40:37.179Z,32.42
2023-02-04T14:45:40.287Z,30.00
2023-02-04T14:50:42.419Z,28.33
2023-02-04T14:55:44.490Z,19.95
2023-02-04T15:00:46.655Z,22.60
2023-02-04T15:05:48.654Z,23.40
2023-02-04T15:10:50.778Z,20.90
2023-02-04T15:15:53.044Z,19.05
2023-02-04T15:20:55.334Z,18.88
2023-02-04T15:25:57.686Z,17.35
2023-02-04T15:30:59.727Z,17.02
2023-02-04T15:36:01.919Z,23.08
2023-02-04T15:41:04.404Z,24.00
2023-02-04T15:46:06.852Z,22.45
2023-02-04T15:51:08.918Z,18.50
2023-02-04T15:56:11.130Z,14.65
2023-02-04T16:01:15.463Z,15.65
2023-02-04T16:06:17.680Z,17.30
2023-02-04T16:11:19.775Z,17.65
2023-02-04T16:16:21.959Z,10.82
2023-02-04T16:21:24.110Z,17.55
2023-02-04T16:26:26.380Z,26.33
2023-02-04T16:31:28.539Z,26.08
2023-02-04T16:36:30.795Z,28.42
2023-02-04T16:41:32.950Z,24.20
2023-02-04T16:46:35.064Z,23.52
2023-02-04T16:51:37.380Z,25.65
2023-02-04T16:56:39.504Z,29.33
2023-02-04T17:01:41.940Z,26.65
2023-02-04T17:06:44.222Z,22.13
2023-02-04T17:11:46.437Z,24.90
2023-02-04T17:16:49.206Z,23.73
2023-02-04T17:21:51.539Z,28.05
2023-02-04T17:26:53.646Z,33.28
2023-02-04T17:31:56.412Z,27.20
2023-02-04T17:36:58.474Z,32.33
2023-02-04T17:42:00.445Z,36.15
2023-02-04T17:47:03.160Z,33.03
2023-02-04T17:52:05.602Z,32.22
2023-02-04T17:57:21.098Z,29.88
2023-02-04T18:02:30.943Z,36.05
2023-02-04T18:07:34.182Z,36.10
2023-02-04T18:12:36.746Z,36.38
2023-02-04T18:17:38.725Z,36.10
2023-02-04T18:22:40.778Z,31.25
2023-02-04T18:27:42.924Z,38.00
2023-02-04T18:32:45.145Z,32.78
2023-02-04T18:37:47.751Z,33.97
2023-02-04T18:42:50.107Z,38.55
2023-02-04T18:48:24.940Z,46.38
2023-02-04T18:53:28.533Z,38.17
2023-02-04T18:58:42.658Z,41.42
2023-02-04T19:03:53.234Z,45.40
2023-02-04T19:09:13.687Z,45.17
2023-02-04T19:14:25.151Z,38.58
2023-02-04T19:19:38.963Z,39.97
2023-02-04T19:24:41.349Z,40.58
2023-02-04T19:29:43.587Z,41.97
2023-02-04T19:34:45.757Z,45.22
2023-02-04T19:39:49.638Z,39.22
2023-02-04T19:44:51.880Z,43.75
2023-02-04T19:50:24.763Z,42.63
2023-02-04T19:55:36.273Z,42.15
2023-02-04T20:00:55.228Z,44.05
2023-02-04T20:06:01.620Z,42.45
2023-02-04T20:11:34.763Z,44.28
2023-02-04T20:16:39.137Z,45.80
2023-02-04T20:21:41.603Z,47.17
2023-02-04T20:26:45.026Z,47.30
2023-02-04T20:31:47.535Z,54.53
2023-02-04T20:36:51.987Z,60.35
2023-02-04T20:41:54.282Z,55.45
2023-02-04T20:47:17.000Z,51.33
2023-02-04T20:52:37.933Z,71.00
2023-02-04T20:57:40.007Z,64.05
2023-02-04T21:02:42.078Z,70.28
2023-02-04T21:07:44.053Z,66.30
2023-02-04T21:12:46.074Z,67.85
2023-02-04T21:17:48.373Z,71.30
2023-02-04T21:22:50.397Z,67.80
2023-02-04T21:27:52.631Z,70.15
2023-02-04T21:32:54.664Z,71.82
2023-02-04T21:38:03.122Z,73.20
2023-02-04T21:43:08.012Z,67.30
2023-02-04T21:48:10.234Z,68.20
2023-02-04T21:53:12.390Z,70.53
2023-02-04T21:58:14.543Z,68.10
2023-02-04T22:03:17.362Z,69.63
2023-02-04T22:08:21.148Z,68.85
2023-02-04T22:13:41.637Z,68.07
2023-02-04T22:18:43.762Z,69.77
2023-02-04T22:23:45.975Z,70.82
2023-02-04T22:28:48.131Z,70.50
2023-02-04T22:33:50.249Z,63.05
2023-02-04T22:38:52.263Z,71.20
2023-02-04T22:43:54.265Z,64.85
2023-02-04T22:48:56.735Z,64.15
2023-02-04T22:53:59.180Z,71.88
2023-02-04T22:59:02.843Z,65.03
2023-02-04T23:04:05.005Z,64.10
2023-02-04T23:09:07.175Z,59.75
2023-02-04T23:14:09.433Z,59.25
2023-02-04T23:19:11.438Z,56.13
2023-02-04T23:24:13.477Z,58.55
2023-02-04T23:29:16.421Z,54.72
2023-02-04T23:34:18.463Z,61.15
2023-02-04T23:39:21.054Z,54.97
2023-02-04T23:44:23.191Z,50.90
2023-02-04T23:49:25.258Z,52.40
2023-02-04T23:54:27.512Z,54.42
2023-02-04T23:59:29.903Z,50.90
